createdAt,value
2018-09-19T05:41:23.375Z,72.07
2018-09-19T05:43:52.016Z,71.25
2018-09-19T05:46:20.682Z,71.29
2018-09-19T05:48:49.333Z,69.75
2018-09-19T05:51:18.020Z,69.34
2018-09-19T05:53:46.716Z,69.50
2018-09-19T05:56:15.383Z,68.72
2018-09-19T05:58:44.058Z,69.30
2018-09-19T06:01:12.820Z,68.55
2018-09-19T06:03:41.449Z,68.52
2018-09-19T06:06:10.136Z,67.90
2018-09-19T06:08:38.784Z,67.84
2018-09-19T06:11:07.479Z,66.99
2018-09-19T06:13:36.118Z,66.81
2018-09-19T06:16:04.831Z,66.56
2018-09-19T06:18:33.588Z,66.52
2018-09-19T06:21:02.268Z,65.79
2018-09-19T06:23:30.915Z,65.90
2018-09-19T06:25:59.590Z,65.60
2018-09-19T06:28:28.310Z,65.89
2018-09-19T06:30:57.000Z,66.00
2018-09-19T06:33:25.846Z,64.98
2018-09-19T06:35:54.503Z,64.72
2018-09-19T06:38:23.210Z,65.32
2018-09-19T06:40:51.996Z,65.23
2018-09-19T06:43:20.602Z,64.54
2018-09-19T06:45:49.577Z,64.20
2018-09-19T06:48:18.287Z,63.94
2018-09-19T06:50:46.966Z,63.13
2018-09-19T06:53:15.641Z,63.34
2018-09-19T06:55:44.354Z,63.09
2018-09-19T06:58:12.987Z,63.42
2018-09-19T07:00:41.663Z,62.98
2018-09-19T07:03:10.282Z,62.42
2018-09-19T07:05:39.037Z,62.76
2018-09-19T07:08:07.731Z,62.26
2018-09-19T07:10:36.452Z,62.00
2018-09-19T07:13:05.142Z,61.58
2018-09-19T07:15:33.822Z,61.41
2018-09-19T07:18:02.503Z,61.33
2018-09-19T07:20:31.220Z,61.30
2018-09-19T07:22:59.876Z,60.32
2018-09-19T07:25:28.664Z,60.56
2018-09-19T07:27:57.312Z,59.72
2018-09-19T07:30:26.017Z,59.68
2018-09-19T07:32:54.666Z,59.19
2018-09-19T07:35:23.317Z,58.67
2018-09-19T07:37:51.977Z,58.76
2018-09-19T07:40:20.712Z,58.87
2018-09-19T07:42:49.354Z,58.91
2018-09-19T07:45:24.323Z,58.67
2018-09-19T07:47:52.976Z,57.77
2018-09-19T07:50:21.679Z,57.71
2018-09-19T07:52:50.360Z,57.70
2018-09-19T07:55:19.076Z,56.82
2018-09-19T07:57:47.658Z,57.02
2018-09-19T08:00:20.163Z,56.74
2018-09-19T08:02:48.841Z,56.49
2018-09-19T08:05:17.522Z,56.11
2018-09-19T08:07:46.178Z,55.90
2018-09-19T08:10:14.854Z,55.62
2018-09-19T08:12:43.563Z,55.06
2018-09-19T08:15:12.516Z,55.34
2018-09-19T08:17:41.163Z,54.30
2018-09-19T08:20:09.916Z,53.94
2018-09-19T08:22:38.672Z,54.89
2018-09-19T08:25:07.336Z,53.28
2018-09-19T08:27:35.984Z,54.24
2018-09-19T08:30:08.722Z,53.38
2018-09-19T08:32:37.451Z,53.50
2018-09-19T08:35:06.411Z,53.50
2018-09-19T08:37:35.330Z,53.21
2018-09-19T08:40:04.091Z,51.69
2018-09-19T08:42:33.466Z,51.33
2018-09-19T08:45:02.108Z,51.30
2018-09-19T08:47:30.765Z,50.68
2018-09-19T08:49:59.462Z,51.57
2018-09-19T08:52:28.132Z,52.07
2018-09-19T08:54:56.823Z,51.04
2018-09-19T08:57:25.450Z,50.65
2018-09-19T08:59:54.147Z,50.06
2018-09-19T09:02:22.820Z,50.07
2018-09-19T09:04:51.445Z,49.45
2018-09-19T09:07:21.231Z,49.84
2018-09-19T09:09:49.882Z,49.19
2018-09-19T09:12:18.703Z,48.46
2018-09-19T09:14:47.326Z,48.94
2018-09-19T09:17:15.955Z,47.86
2018-09-19T09:19:44.676Z,45.72
2018-09-19T09:22:13.394Z,47.22
2018-09-19T09:24:42.079Z,47.96
2018-09-19T09:27:10.818Z,47.30
2018-09-19T09:29:39.475Z,46.12
2018-09-19T09:32:08.162Z,46.19
2018-09-19T09:34:36.786Z,46.29
2018-09-19T09:37:05.447Z,46.61
2018-09-19T09:39:34.144Z,46.22
2018-09-19T09:42:02.819Z,44.91
2018-09-19T09:44:31.511Z,43.26
2018-09-19T09:47:00.254Z,43.01
2018-09-19T09:49:28.888Z,43.75
2018-09-19T09:51:57.567Z,45.08
2018-09-19T09:54:26.244Z,42.80
2018-09-19T09:56:54.881Z,43.50
2018-09-19T09:59:23.535Z,43.70
2018-09-19T10:01:52.219Z,41.64
2018-09-19T10:04:20.850Z,41.08
2018-09-19T10:06:49.522Z,41.50
2018-09-19T10:09:18.209Z,37.97
2018-09-19T10:11:46.882Z,37.40
2018-09-19T10:14:15.547Z,37.42
2018-09-19T10:16:44.266Z,37.59
2018-09-19T10:19:12.907Z,36.35
2018-09-19T10:21:41.571Z,36.39
2018-09-19T10:24:10.213Z,35.96
2018-09-19T10:26:38.934Z,34.97
2018-09-19T10:29:07.562Z,34.85
2018-09-19T10:31:36.195Z,33.95
2018-09-19T10:34:04.855Z,33.45
2018-09-19T10:36:33.594Z,33.80
2018-09-19T10:39:02.295Z,33.82
2018-09-19T10:41:30.979Z,33.94
2018-09-19T10:43:59.667Z,32.47
2018-09-19T10:46:28.345Z,32.68
2018-09-19T10:48:57.053Z,32.52
2018-09-19T10:51:25.681Z,31.78
2018-09-19T10:53:54.430Z,31.52
2018-09-19T10:56:23.154Z,31.32
2018-09-19T10:58:51.817Z,31.52
2018-09-19T11:01:20.487Z,32.15
2018-09-19T11:03:49.192Z,31.18
2018-09-19T11:06:17.824Z,31.39
2018-09-19T11:08:46.442Z,29.18
2018-09-19T11:11:15.124Z,29.20
2018-09-19T11:13:43.770Z,29.26
2018-09-19T11:16:12.468Z,28.89
2018-09-19T11:18:41.192Z,30.68
2018-09-19T11:21:09.878Z,27.33
2018-09-19T11:23:38.590Z,28.28
2018-09-19T11:26:07.355Z,28.43
2018-09-19T11:28:36.051Z,27.27
2018-09-19T11:31:04.750Z,28.24
2018-09-19T11:33:33.400Z,26.76
2018-09-19T11:36:02.047Z,28.26
2018-09-19T11:38:30.701Z,28.37
2018-09-19T11:40:59.348Z,27.63
2018-09-19T11:43:28.026Z,26.23
2018-09-19T11:45:56.687Z,27.62
2018-09-19T11:48:25.319Z,28.08
2018-09-19T11:50:54.081Z,27.81
2018-09-19T11:53:27.106Z,27.80
2018-09-19T11:55:56.411Z,27.57
2018-09-19T11:58:25.087Z,27.16
2018-09-19T12:00:53.723Z,26.49
2018-09-19T12:03:22.422Z,26.47
2018-09-19T12:05:51.240Z,26.46
2018-09-19T12:08:20.619Z,27.57
2018-09-19T12:10:49.268Z,26.76
2018-09-19T12:13:17.962Z,27.43
2018-09-19T12:15:46.619Z,26.88
2018-09-19T12:18:15.342Z,26.92
2018-09-19T12:20:44.011Z,27.10
2018-09-19T12:23:12.623Z,27.69
2018-09-19T12:25:41.290Z,26.62
2018-09-19T12:28:10.127Z,28.02
2018-09-19T12:30:38.782Z,27.31
2018-09-19T12:33:07.489Z,27.23
2018-09-19T12:35:36.122Z,27.30
2018-09-19T12:38:04.884Z,27.90
2018-09-19T12:40:33.536Z,26.19
2018-09-19T12:43:02.162Z,24.21
2018-09-19T12:45:30.798Z,25.82
2018-09-19T12:47:59.455Z,25.49
2018-09-19T12:50:28.062Z,26.22
2018-09-19T12:52:56.729Z,26.73
2018-09-19T12:55:25.371Z,25.53
2018-09-19T12:57:54.111Z,25.47
2018-09-19T13:00:22.785Z,25.53
2018-09-19T13:02:51.433Z,26.68
2018-09-19T13:05:20.165Z,24.43
2018-09-19T13:07:48.839Z,25.56
2018-09-19T13:10:17.499Z,24.90
2018-09-19T13:12:46.117Z,24.87
2018-09-19T13:15:14.827Z,24.55
2018-09-19T13:17:43.518Z,23.88
2018-09-19T13:20:12.179Z,24.19
2018-09-19T13:22:40.925Z,24.96
2018-09-19T13:25:09.673Z,25.51
2018-09-19T13:27:38.394Z,25.62
2018-09-19T13:30:07.328Z,25.22
2018-09-19T13:32:35.979Z,26.12
2018-09-19T13:35:04.663Z,26.18
2018-09-19T13:37:33.317Z,24.91
2018-09-19T13:40:02.050Z,24.90
2018-09-19T13:42:30.735Z,25.52
2018-09-19T13:44:59.408Z,26.47
2018-09-19T13:47:28.126Z,25.85
2018-09-19T13:50:41.246Z,26.33
2018-09-19T13:53:10.739Z,25.19
2018-09-19T13:55:39.545Z,26.07
2018-09-19T13:58:08.161Z,25.26
2018-09-19T14:00:36.807Z,25.98
2018-09-19T14:03:05.494Z,25.30
2018-09-19T14:05:34.870Z,26.30
2018-09-19T14:08:03.486Z,26.11
2018-09-19T14:10:32.161Z,26.01
2018-09-19T14:13:00.887Z,24.64
2018-09-19T14:15:29.527Z,25.73
2018-09-19T14:17:58.216Z,25.06
2018-09-19T14:20:26.858Z,25.85
2018-09-19T14:22:55.527Z,25.09
2018-09-19T14:25:24.182Z,25.09
2018-09-19T14:27:52.858Z,25.18
2018-09-19T14:30:21.550Z,25.01
2018-09-19T14:32:50.191Z,25.11
2018-09-19T14:35:18.826Z,25.60
2018-09-19T14:37:47.499Z,26.45
2018-09-19T14:40:16.391Z,25.81
2018-09-19T14:42:45.142Z,27.30
2018-09-19T14:45:13.767Z,26.72
2018-09-19T14:47:42.548Z,26.74
2018-09-19T14:50:11.309Z,27.41
2018-09-19T14:52:39.951Z,27.67
2018-09-19T14:55:08.651Z,27.10
2018-09-19T14:57:37.332Z,25.97
2018-09-19T15:00:11.184Z,25.86
2018-09-19T15:02:39.953Z,26.52
2018-09-19T15:05:08.634Z,26.22
2018-09-19T15:07:37.259Z,26.01
2018-09-19T15:10:05.919Z,26.91
2018-09-19T15:12:34.628Z,27.00
2018-09-19T15:15:03.297Z,27.77
2018-09-19T15:17:31.961Z,26.57
2018-09-19T15:20:00.567Z,27.70
2018-09-19T15:22:29.190Z,27.64
2018-09-19T15:24:57.847Z,28.13
2018-09-19T15:27:26.530Z,27.62
2018-09-19T15:29:55.211Z,27.14
2018-09-19T15:32:23.898Z,26.79
2018-09-19T15:34:52.552Z,26.78
2018-09-19T15:37:21.177Z,27.86
2018-09-19T15:39:49.857Z,27.32
2018-09-19T15:42:18.581Z,27.03
2018-09-19T15:44:47.283Z,27.50
2018-09-19T15:47:15.978Z,27.76
2018-09-19T15:49:44.723Z,29.17
2018-09-19T15:52:13.439Z,28.92
2018-09-19T15:54:42.108Z,30.17
2018-09-19T15:57:10.819Z,30.24
2018-09-19T15:59:39.475Z,30.07
2018-09-19T16:02:08.232Z,30.79
2018-09-19T16:04:36.870Z,31.07
2018-09-19T16:07:05.636Z,30.69
2018-09-19T16:09:34.345Z,30.28
2018-09-19T16:12:03.161Z,31.51
2018-09-19T16:14:31.795Z,30.72
2018-09-19T16:17:00.450Z,31.93
2018-09-19T16:19:29.102Z,32.93
2018-09-19T16:21:57.783Z,33.34
2018-09-19T16:24:26.451Z,34.18
2018-09-19T16:26:55.204Z,33.72
2018-09-19T16:29:23.843Z,33.61
2018-09-19T16:31:52.474Z,35.01
2018-09-19T16:34:21.353Z,35.64
2018-09-19T16:36:50.013Z,36.00
2018-09-19T16:39:18.660Z,35.78
2018-09-19T16:41:47.272Z,37.25
2018-09-19T16:44:16.140Z,37.55
2018-09-19T16:49:09.125Z,38.35
2018-09-19T16:51:37.810Z,39.08
2018-09-19T16:54:06.506Z,39.46
2018-09-19T16:56:35.150Z,40.13
2018-09-19T16:59:03.835Z,41.34
2018-09-19T17:01:32.532Z,41.38
2018-09-19T17:04:01.184Z,41.52
2018-09-19T17:06:29.820Z,41.83
2018-09-19T17:08:58.494Z,42.88
2018-09-19T17:11:27.227Z,42.65
2018-09-19T17:13:55.855Z,43.29
2018-09-19T17:16:24.643Z,44.03
2018-09-19T17:18:53.396Z,43.71
2018-09-19T17:21:22.053Z,44.56
2018-09-19T17:23:50.718Z,44.50
2018-09-19T17:26:19.387Z,44.71
2018-09-19T17:28:48.298Z,44.88
2018-09-19T17:33:44.512Z,45.58
2018-09-19T17:36:13.173Z,46.19
2018-09-19T17:38:41.922Z,45.63
2018-09-19T17:41:10.584Z,45.56
2018-09-19T17:43:39.234Z,46.46
2018-09-19T17:46:07.940Z,45.75
2018-09-19T17:48:36.707Z,46.23
2018-09-19T17:51:05.358Z,46.27
2018-09-19T17:53:34.068Z,45.79
2018-09-19T17:56:02.721Z,45.39
2018-09-19T17:58:31.457Z,45.66
2018-09-19T18:01:00.150Z,46.68
2018-09-19T18:03:28.832Z,47.27
2018-09-19T18:05:57.569Z,47.81
2018-09-19T18:08:26.241Z,47.68
2018-09-19T18:10:54.911Z,48.16
2018-09-19T18:13:23.813Z,48.13
2018-09-19T18:15:52.486Z,48.41
2018-09-19T18:18:21.140Z,47.49
2018-09-19T18:20:49.796Z,47.60
2018-09-19T18:23:18.572Z,47.76
2018-09-19T18:25:47.255Z,48.25
2018-09-19T18:28:17.613Z,48.48
2018-09-19T18:30:46.283Z,48.77
2018-09-19T18:33:14.969Z,48.40
2018-09-19T18:35:43.628Z,48.63
2018-09-19T18:38:12.303Z,48.79
2018-09-19T18:40:41.932Z,49.13
2018-09-19T18:43:10.646Z,48.74
2018-09-19T18:45:39.375Z,48.81
2018-09-19T18:48:08.048Z,48.88
2018-09-19T18:50:36.862Z,49.08
2018-09-19T18:53:05.512Z,49.22
2018-09-19T18:55:34.156Z,49.27
2018-09-19T18:58:02.786Z,49.26
2018-09-19T19:00:31.462Z,49.84
2018-09-19T19:03:00.174Z,49.54
2018-09-19T19:05:28.828Z,49.43
2018-09-19T19:07:57.478Z,50.59
2018-09-19T19:10:26.142Z,50.44
2018-09-19T19:12:55.371Z,51.06
2018-09-19T19:15:24.024Z,51.14
2018-09-19T19:17:52.724Z,50.88
2018-09-19T19:20:21.982Z,50.91
2018-09-19T19:22:50.664Z,51.30
2018-09-19T19:25:19.632Z,51.13
2018-09-19T19:27:48.421Z,51.05
2018-09-19T19:30:17.099Z,51.12
2018-09-19T19:32:45.753Z,52.17
2018-09-19T19:35:14.428Z,51.41
2018-09-19T19:37:43.096Z,51.76
2018-09-19T19:40:11.743Z,51.52
2018-09-19T19:42:40.410Z,51.58
2018-09-19T19:45:09.118Z,51.67
2018-09-19T19:47:37.873Z,51.92
2018-09-19T19:50:06.637Z,51.72
2018-09-19T19:52:35.263Z,51.94
2018-09-19T19:55:03.979Z,51.61
2018-09-19T19:57:32.702Z,51.76
2018-09-19T20:00:01.409Z,51.99
2018-09-19T20:02:30.080Z,52.39
2018-09-19T20:04:58.790Z,51.87
2018-09-19T20:07:27.402Z,51.87
2018-09-19T20:09:56.029Z,52.95
2018-09-19T20:12:24.711Z,51.76
2018-09-19T20:14:53.344Z,52.24
2018-09-19T20:17:22.038Z,52.14
2018-09-19T20:19:50.694Z,52.19
2018-09-19T20:22:19.344Z,53.50
2018-09-19T20:24:48.048Z,52.14
2018-09-19T20:27:16.685Z,53.01
2018-09-19T20:29:45.421Z,52.65
2018-09-19T20:32:14.047Z,52.92
2018-09-19T20:34:42.740Z,52.52
2018-09-19T20:37:11.421Z,52.77
2018-09-19T20:39:40.042Z,53.38
2018-09-19T20:42:08.676Z,53.24
2018-09-19T20:44:37.333Z,53.08
2018-09-19T20:47:06.195Z,53.19
2018-09-19T20:49:34.875Z,52.82
2018-09-19T20:52:03.486Z,53.36
2018-09-19T20:54:32.182Z,52.99
2018-09-19T20:57:01.174Z,53.35
2018-09-19T20:59:29.795Z,53.78
2018-09-19T21:01:58.481Z,53.97
2018-09-19T21:04:27.205Z,53.83
2018-09-19T21:06:55.806Z,53.32
2018-09-19T21:09:24.461Z,54.12
2018-09-19T21:11:53.123Z,53.77
2018-09-19T21:14:22.102Z,53.83
2018-09-19T21:16:50.755Z,53.84
2018-09-19T21:19:19.521Z,54.12
2018-09-19T21:21:48.245Z,54.23
2018-09-19T21:24:17.023Z,53.81
2018-09-19T21:26:45.688Z,54.60
2018-09-19T21:29:14.302Z,54.79
2018-09-19T21:31:42.973Z,54.56
2018-09-19T21:34:11.672Z,54.95
2018-09-19T21:36:40.323Z,55.80
2018-09-19T21:39:10.258Z,55.34
2018-09-19T21:41:39.094Z,55.32
2018-09-19T21:44:07.814Z,55.97
2018-09-19T21:46:36.449Z,55.78
2018-09-19T21:49:05.274Z,55.83
2018-09-19T21:51:33.915Z,56.01
2018-09-19T21:54:02.585Z,56.45
2018-09-19T21:56:31.315Z,56.16
2018-09-19T21:58:59.951Z,56.03
2018-09-19T22:01:33.968Z,55.62
2018-09-19T22:04:02.603Z,55.45
2018-09-19T22:06:31.217Z,57.47
2018-09-19T22:08:59.858Z,57.49
2018-09-19T22:11:28.504Z,57.08
2018-09-19T22:13:57.140Z,56.59
2018-09-19T22:16:25.788Z,57.04
2018-09-19T22:18:54.503Z,56.41
2018-09-19T22:21:23.127Z,57.10
2018-09-19T22:23:51.755Z,57.44
2018-09-19T22:26:20.404Z,57.73
2018-09-19T22:28:49.034Z,57.53
2018-09-19T22:31:17.668Z,57.59
2018-09-19T22:33:46.296Z,57.84
2018-09-19T22:36:14.928Z,58.49
2018-09-19T22:38:43.553Z,58.24
2018-09-19T22:41:12.217Z,57.84
2018-09-19T22:43:40.844Z,57.91
2018-09-19T22:46:09.531Z,58.29
2018-09-19T22:48:38.192Z,57.13
2018-09-19T22:51:06.881Z,57.30
2018-09-19T22:53:35.563Z,58.01
2018-09-19T22:56:04.300Z,57.31
2018-09-19T22:58:32.938Z,57.41
2018-09-19T23:01:01.646Z,57.76
2018-09-19T23:03:30.318Z,57.35
2018-09-19T23:05:58.954Z,58.04
2018-09-19T23:08:27.617Z,57.38
2018-09-19T23:10:56.227Z,57.59
2018-09-19T23:13:24.969Z,57.17
2018-09-19T23:15:53.616Z,57.53
2018-09-19T23:18:22.298Z,57.68
2018-09-19T23:20:50.931Z,56.65
2018-09-19T23:23:19.564Z,57.72
2018-09-19T23:25:48.286Z,57.63
2018-09-19T23:28:16.901Z,57.26
2018-09-19T23:30:45.574Z,57.80
2018-09-19T23:33:14.176Z,57.82
2018-09-19T23:35:42.859Z,57.74
2018-09-19T23:38:11.497Z,58.00
2018-09-19T23:40:40.143Z,58.36
2018-09-19T23:43:08.772Z,58.69
2018-09-19T23:45:37.429Z,59.40
2018-09-19T23:48:06.027Z,59.74
2018-09-19T23:50:34.696Z,60.17
2018-09-19T23:53:03.363Z,60.84
2018-09-19T23:55:32.012Z,60.57
2018-09-19T23:58:00.696Z,60.93
